Seattle, WA

3:56 AM PDT on October 02, 2014 (GMT -0700)
South Seattle | Change Station
CLOSE
Current Station
Personal Weather Station
Location: Seattle, WA
Elevation: 154 ft
Nearby Weather Stations

Elev 154 ft 47.54 °N, 122.26 °W | Updated 3 minutes ago

Overcast
Overcast
55.6 °F
Feels Like 55.6 °F
N
0.0
Wind Variable Wind from North
Gusts 0.0 mph

Today
High -- | Low -- °F
--% Chance of Precip.
Yesterday
High -- | Low -- °F
Precip. -- in
7:09 AM 6:46 PM
First Quarter, 57% visible
Pressure 30.23 in
Visibility 10.0 miles
Clouds Overcast 6500 ft
Dew Point 49 °F
Humidity 78%
Rainfall 0.00 in
Snow Depth 0 in , 0 in , 0 in
UV 0 out of 12
Pollen 1.10 out of 12
Air Quality Not available.
Flu Activity Not available.
METAR KBFI 021053Z 00000KT 10SM OVC065 15/08 A3023 RMK AO2 SLP235 T01500078

More Conditions Fewer Conditions

Pressure 30.23 in
Visibility 10.0 miles
Clouds Overcast 6500 ft
Dew Point 49 °F
Humidity 78%
Rainfall 0.00 in
Snow Depth 0 in , 0 in , 0 in
UV 0 out of 12
Pollen 1.10 out of 12
Air Quality Not available.
Flu Activity Not available.
METAR KBFI 021053Z 00000KT 10SM OVC065 15/08 A3023 RMK AO2 SLP235 T01500078

More Conditions Fewer Conditions

10-Day Weather Forecast

Almanac

Astronomy

Oct. 02, 2014 Rise Set
Actual Time 7:09 AM PDT 6:46 PM PDT
Civil Twilight 6:38 AM PDT 7:16 PM PDT
Nautical Twilight 6:03 AM PDT 7:52 PM PDT
Astronomical Twilight 5:26 AM PDT 8:28 PM PDT
Moon 3:18 PM PDT 12:09 AM PDT
Length of Visible Light 12h 37m
Length of Day
11h 36m
Tomorrow will be 3m 24s shorter.
First Quarter, 57% of the Moon is Illuminated
Today
First Quarter
Oct 8
Full
Oct 15
Last Quarter
Oct 23
New
Oct 30
First Quarter

Today's Extremes

State Highs State Lows

Community

WunderPhotos

Upload Photos

1,758,210 photos uploaded!

WunderBlogs® & News

Nearby

Air Quality

  Air Quality AQ Index Pollutant
Thursday Good
PM2.5
Friday Good
PM2.5
Saturday Good
PM2.5

Snow Depth

Station Depth Elevation
Sentinel Butte 0 in 4920 ft
Morse Lake 0 in 5400 ft
June Lake 0 in 3340 ft
Harts Pass 0 in 6500 ft
Beaver Pass 0 in 3620 ft

Earthquake Activity

City Distance Mag. Time & Date
No recent earthquake activity has been reported nearby.
Minimum magnitude displayed is 2.5.

Coastal Water Temperatures

Place Temperature
Port Townsend, WA 52.0 °F
Seattle, WA 55.9 °F
Friday Harbor, WA 51.1 °F
Tacoma, WA 55.9 °F

Nearby Weather Stations